Terminal Aerodrome Forecast
Issued by NWS

Home | Current Version | Previous Version | Text Only | Print | Product List | Glossary On
Versions: 1 2 3 4 5 6 7 8 9 10 11 12 13 14 15 16 17 18 19 20 21 22 23 24 25 26 27
000
FTUS46 KMTR 262338
TAFSFO
TAF
KSFO 262338Z 2700/2806 29018G24KT P6SM FEW018
     FM270300 26015KT P6SM FEW018
      TEMPO 2703/2707 BKN015
     FM270700 27007KT P6SM OVC013
     FM271800 27011KT P6SM FEW020
     FM272100 28015G23KT P6SM FEW020=

USA.gov is the U.S. government's official web portal to all federal, state and local government web resources and services.